sensor_id;sensor_type;location;lat;lon;timestamp;P1;durP1;ratioP1;P2;durP2;ratioP2
48813;SDS011;34634;44.108;3.074;2022-09-12T00:00:42;1.67;;;0.73;;
48813;SDS011;34634;44.108;3.074;2022-09-12T00:03:08;3.15;;;0.70;;
48813;SDS011;34634;44.108;3.074;2022-09-12T00:05:39;3.90;;;0.88;;
48813;SDS011;34634;44.108;3.074;2022-09-12T00:08:06;3.67;;;1.05;;
48813;SDS011;34634;44.108;3.074;2022-09-12T00:10:32;4.90;;;1.10;;
48813;SDS011;34634;44.108;3.074;2022-09-12T00:13:02;1.95;;;0.95;;
48813;SDS011;34634;44.108;3.074;2022-09-12T00:15:28;5.30;;;1.00;;
48813;SDS011;34634;44.108;3.074;2022-09-12T00:17:54;2.15;;;0.80;;
48813;SDS011;34634;44.108;3.074;2022-09-12T00:20:20;2.60;;;0.80;;
48813;SDS011;34634;44.108;3.074;2022-09-12T00:22:47;3.85;;;0.95;;
48813;SDS011;34634;44.108;3.074;2022-09-12T00:25:13;2.90;;;0.93;;
48813;SDS011;34634;44.108;3.074;2022-09-12T00:27:39;3.67;;;1.10;;
48813;SDS011;34634;44.108;3.074;2022-09-12T00:30:06;4.00;;;0.90;;
48813;SDS011;34634;44.108;3.074;2022-09-12T00:32:32;4.32;;;1.35;;
48813;SDS011;34634;44.108;3.074;2022-09-12T00:34:58;3.30;;;0.70;;
48813;SDS011;34634;44.108;3.074;2022-09-12T00:37:27;1.70;;;0.70;;
48813;SDS011;34634;44.108;3.074;2022-09-12T00:39:53;5.88;;;1.05;;
48813;SDS011;34634;44.108;3.074;2022-09-12T00:42:19;2.38;;;0.90;;
48813;SDS011;34634;44.108;3.074;2022-09-12T00:44:47;2.03;;;0.75;;
48813;SDS011;34634;44.108;3.074;2022-09-12T00:47:18;1.80;;;0.90;;
48813;SDS011;34634;44.108;3.074;2022-09-12T00:49:57;2.35;;;0.95;;
48813;SDS011;34634;44.108;3.074;2022-09-12T00:54:56;2.20;;;0.85;;
48813;SDS011;34634;44.108;3.074;2022-09-12T00:57:26;1.42;;;0.95;;
48813;SDS011;34634;44.108;3.074;2022-09-12T00:59:54;2.25;;;1.10;;
48813;SDS011;34634;44.108;3.074;2022-09-12T01:02:21;2.90;;;1.05;;
48813;SDS011;34634;44.108;3.074;2022-09-12T01:04:48;1.63;;;0.73;;
48813;SDS011;34634;44.108;3.074;2022-09-12T01:07:15;2.33;;;1.00;;
48813;SDS011;34634;44.108;3.074;2022-09-12T01:09:43;4.55;;;1.10;;
48813;SDS011;34634;44.108;3.074;2022-09-12T01:12:10;2.28;;;0.95;;
48813;SDS011;34634;44.108;3.074;2022-09-12T01:14:56;2.25;;;0.80;;
48813;SDS011;34634;44.108;3.074;2022-09-12T01:17:26;5.30;;;1.17;;
48813;SDS011;34634;44.108;3.074;2022-09-12T01:20:07;2.85;;;0.82;;
48813;SDS011;34634;44.108;3.074;2022-09-12T01:25:35;2.40;;;1.00;;
48813;SDS011;34634;44.108;3.074;2022-09-12T01:30:46;1.27;;;0.80;;
48813;SDS011;34634;44.108;3.074;2022-09-12T01:36:14;2.15;;;0.80;;
48813;SDS011;34634;44.108;3.074;2022-09-12T01:47:01;0.93;;;0.77;;
48813;SDS011;34634;44.108;3.074;2022-09-12T01:49:31;3.30;;;1.00;;
48813;SDS011;34634;44.108;3.074;2022-09-12T01:54:34;2.78;;;0.80;;
48813;SDS011;34634;44.108;3.074;2022-09-12T01:57:03;2.25;;;1.00;;
48813;SDS011;34634;44.108;3.074;2022-09-12T01:59:34;3.63;;;1.00;;
48813;SDS011;34634;44.108;3.074;2022-09-12T02:02:04;3.67;;;1.00;;
48813;SDS011;34634;44.108;3.074;2022-09-12T02:04:56;4.60;;;1.50;;
48813;SDS011;34634;44.108;3.074;2022-09-12T02:07:22;1.83;;;1.00;;
48813;SDS011;34634;44.108;3.074;2022-09-12T02:12:54;2.70;;;1.02;;
48813;SDS011;34634;44.108;3.074;2022-09-12T02:15:25;2.25;;;1.20;;
48813;SDS011;34634;44.108;3.074;2022-09-12T02:17:53;2.22;;;0.98;;
48813;SDS011;34634;44.108;3.074;2022-09-12T02:20:22;3.70;;;1.42;;
48813;SDS011;34634;44.108;3.074;2022-09-12T02:22:50;2.45;;;1.25;;
48813;SDS011;34634;44.108;3.074;2022-09-12T02:25:18;3.45;;;1.05;;
48813;SDS011;34634;44.108;3.074;2022-09-12T02:27:56;3.17;;;0.93;;
48813;SDS011;34634;44.108;3.074;2022-09-12T02:30:24;3.80;;;1.17;;
48813;SDS011;34634;44.108;3.074;2022-09-12T02:32:59;2.75;;;0.88;;
48813;SDS011;34634;44.108;3.074;2022-09-12T02:35:45;3.03;;;1.10;;
48813;SDS011;34634;44.108;3.074;2022-09-12T02:38:21;4.07;;;1.00;;
48813;SDS011;34634;44.108;3.074;2022-09-12T02:40:50;1.23;;;1.00;;
48813;SDS011;34634;44.108;3.074;2022-09-12T02:43:16;2.33;;;1.10;;
48813;SDS011;34634;44.108;3.074;2022-09-12T02:45:42;1.23;;;0.80;;
48813;SDS011;34634;44.108;3.074;2022-09-12T02:48:17;2.17;;;1.20;;
48813;SDS011;34634;44.108;3.074;2022-09-12T02:50:44;4.68;;;1.20;;
48813;SDS011;34634;44.108;3.074;2022-09-12T02:53:10;1.58;;;1.00;;
48813;SDS011;34634;44.108;3.074;2022-09-12T02:55:37;2.80;;;0.80;;
48813;SDS011;34634;44.108;3.074;2022-09-12T02:58:05;3.72;;;1.20;;
48813;SDS011;34634;44.108;3.074;2022-09-12T03:00:34;2.67;;;1.15;;
48813;SDS011;34634;44.108;3.074;2022-09-12T03:06:03;2.53;;;1.00;;
48813;SDS011;34634;44.108;3.074;2022-09-12T03:21:47;1.75;;;1.02;;
48813;SDS011;34634;44.108;3.074;2022-09-12T03:26:47;1.92;;;1.20;;
48813;SDS011;34634;44.108;3.074;2022-09-12T03:29:15;4.20;;;1.10;;
48813;SDS011;34634;44.108;3.074;2022-09-12T03:31:50;3.00;;;1.00;;
48813;SDS011;34634;44.108;3.074;2022-09-12T03:34:17;3.40;;;1.30;;
48813;SDS011;34634;44.108;3.074;2022-09-12T03:36:44;3.50;;;0.98;;
48813;SDS011;34634;44.108;3.074;2022-09-12T03:39:10;2.58;;;1.05;;
48813;SDS011;34634;44.108;3.074;2022-09-12T03:41:36;3.90;;;1.27;;
48813;SDS011;34634;44.108;3.074;2022-09-12T03:44:02;2.80;;;1.08;;
48813;SDS011;34634;44.108;3.074;2022-09-12T03:46:29;2.35;;;1.05;;
48813;SDS011;34634;44.108;3.074;2022-09-12T03:48:55;1.65;;;1.08;;
48813;SDS011;34634;44.108;3.074;2022-09-12T03:51:21;1.52;;;1.20;;
48813;SDS011;34634;44.108;3.074;2022-09-12T03:53:48;1.13;;;1.00;;
48813;SDS011;34634;44.108;3.074;2022-09-12T03:56:14;1.77;;;1.00;;
48813;SDS011;34634;44.108;3.074;2022-09-12T03:58:40;4.38;;;1.25;;
48813;SDS011;34634;44.108;3.074;2022-09-12T04:01:11;2.22;;;1.00;;
48813;SDS011;34634;44.108;3.074;2022-09-12T04:06:04;5.65;;;1.13;;
48813;SDS011;34634;44.108;3.074;2022-09-12T04:08:30;1.48;;;1.10;;
48813;SDS011;34634;44.108;3.074;2022-09-12T04:11:04;1.70;;;1.23;;
48813;SDS011;34634;44.108;3.074;2022-09-12T04:13:30;2.17;;;1.25;;
48813;SDS011;34634;44.108;3.074;2022-09-12T04:15:57;3.25;;;1.10;;
48813;SDS011;34634;44.108;3.074;2022-09-12T04:18:24;3.03;;;1.20;;
48813;SDS011;34634;44.108;3.074;2022-09-12T04:20:50;2.97;;;1.23;;
48813;SDS011;34634;44.108;3.074;2022-09-12T04:23:17;2.78;;;1.23;;
48813;SDS011;34634;44.108;3.074;2022-09-12T04:25:43;3.55;;;1.50;;
48813;SDS011;34634;44.108;3.074;2022-09-12T04:28:09;2.30;;;1.20;;
48813;SDS011;34634;44.108;3.074;2022-09-12T04:30:36;1.85;;;1.27;;
48813;SDS011;34634;44.108;3.074;2022-09-12T04:33:02;2.58;;;1.25;;
48813;SDS011;34634;44.108;3.074;2022-09-12T04:35:28;2.92;;;0.98;;
48813;SDS011;34634;44.108;3.074;2022-09-12T04:37:55;2.47;;;1.17;;
48813;SDS011;34634;44.108;3.074;2022-09-12T04:40:21;3.97;;;1.08;;
48813;SDS011;34634;44.108;3.074;2022-09-12T04:42:47;3.08;;;1.38;;
48813;SDS011;34634;44.108;3.074;2022-09-12T04:45:14;5.97;;;1.48;;
48813;SDS011;34634;44.108;3.074;2022-09-12T04:47:41;4.82;;;1.20;;
48813;SDS011;34634;44.108;3.074;2022-09-12T04:50:07;5.85;;;1.20;;
48813;SDS011;34634;44.108;3.074;2022-09-12T04:52:34;3.38;;;1.20;;
48813;SDS011;34634;44.108;3.074;2022-09-12T04:55:00;7.38;;;1.30;;
48813;SDS011;34634;44.108;3.074;2022-09-12T04:57:26;3.65;;;1.10;;
48813;SDS011;34634;44.108;3.074;2022-09-12T04:59:53;4.10;;;1.25;;
48813;SDS011;34634;44.108;3.074;2022-09-12T05:02:19;8.55;;;1.27;;
48813;SDS011;34634;44.108;3.074;2022-09-12T05:04:45;2.97;;;1.27;;
48813;SDS011;34634;44.108;3.074;2022-09-12T05:07:11;4.03;;;1.00;;
48813;SDS011;34634;44.108;3.074;2022-09-12T05:09:38;1.50;;;1.02;;
48813;SDS011;34634;44.108;3.074;2022-09-12T05:12:04;3.92;;;1.38;;
48813;SDS011;34634;44.108;3.074;2022-09-12T05:14:31;1.30;;;1.20;;
48813;SDS011;34634;44.108;3.074;2022-09-12T05:16:58;2.10;;;1.13;;
48813;SDS011;34634;44.108;3.074;2022-09-12T05:19:26;2.97;;;1.23;;
48813;SDS011;34634;44.108;3.074;2022-09-12T05:21:52;3.25;;;1.40;;
48813;SDS011;34634;44.108;3.074;2022-09-12T05:24:19;2.60;;;1.55;;
48813;SDS011;34634;44.108;3.074;2022-09-12T05:26:45;3.75;;;1.13;;
48813;SDS011;34634;44.108;3.074;2022-09-12T05:29:12;3.78;;;1.20;;
48813;SDS011;34634;44.108;3.074;2022-09-12T05:31:38;2.42;;;1.30;;
48813;SDS011;34634;44.108;3.074;2022-09-12T05:34:05;4.18;;;1.30;;
48813;SDS011;34634;44.108;3.074;2022-09-12T05:36:33;3.75;;;1.50;;
48813;SDS011;34634;44.108;3.074;2022-09-12T05:38:59;1.98;;;1.23;;
48813;SDS011;34634;44.108;3.074;2022-09-12T05:41:26;6.53;;;1.60;;
48813;SDS011;34634;44.108;3.074;2022-09-12T05:43:58;3.83;;;1.25;;
48813;SDS011;34634;44.108;3.074;2022-09-12T05:46:29;3.13;;;1.25;;
48813;SDS011;34634;44.108;3.074;2022-09-12T05:48:55;2.92;;;1.30;;
48813;SDS011;34634;44.108;3.074;2022-09-12T05:51:23;1.80;;;1.48;;
48813;SDS011;34634;44.108;3.074;2022-09-12T05:53:51;2.45;;;1.38;;
48813;SDS011;34634;44.108;3.074;2022-09-12T05:56:19;4.10;;;1.30;;
48813;SDS011;34634;44.108;3.074;2022-09-12T05:58:51;1.67;;;1.15;;
48813;SDS011;34634;44.108;3.074;2022-09-12T06:01:18;1.90;;;1.30;;
48813;SDS011;34634;44.108;3.074;2022-09-12T06:03:48;2.90;;;1.10;;
48813;SDS011;34634;44.108;3.074;2022-09-12T06:06:16;3.00;;;1.10;;
48813;SDS011;34634;44.108;3.074;2022-09-12T06:08:44;3.42;;;1.30;;
48813;SDS011;34634;44.108;3.074;2022-09-12T06:11:13;4.82;;;1.15;;
48813;SDS011;34634;44.108;3.074;2022-09-12T06:13:39;6.82;;;1.60;;
48813;SDS011;34634;44.108;3.074;2022-09-12T06:16:26;6.22;;;1.50;;
48813;SDS011;34634;44.108;3.074;2022-09-12T06:18:53;5.43;;;1.58;;
48813;SDS011;34634;44.108;3.074;2022-09-12T06:21:20;3.78;;;1.30;;
48813;SDS011;34634;44.108;3.074;2022-09-12T06:23:48;3.28;;;1.10;;
48813;SDS011;34634;44.108;3.074;2022-09-12T06:26:16;2.90;;;1.52;;
48813;SDS011;34634;44.108;3.074;2022-09-12T06:28:43;8.32;;;1.35;;
48813;SDS011;34634;44.108;3.074;2022-09-12T06:31:13;1.48;;;1.10;;
48813;SDS011;34634;44.108;3.074;2022-09-12T06:33:41;2.50;;;1.13;;
48813;SDS011;34634;44.108;3.074;2022-09-12T06:36:09;3.25;;;1.13;;
48813;SDS011;34634;44.108;3.074;2022-09-12T06:38:36;5.25;;;1.42;;
48813;SDS011;34634;44.108;3.074;2022-09-12T06:41:03;5.90;;;1.27;;
48813;SDS011;34634;44.108;3.074;2022-09-12T06:43:29;11.30;;;1.88;;
48813;SDS011;34634;44.108;3.074;2022-09-12T06:45:56;8.02;;;1.58;;
48813;SDS011;34634;44.108;3.074;2022-09-12T06:48:23;3.63;;;1.55;;
48813;SDS011;34634;44.108;3.074;2022-09-12T06:50:59;4.40;;;1.40;;
48813;SDS011;34634;44.108;3.074;2022-09-12T06:53:26;5.05;;;1.55;;
48813;SDS011;34634;44.108;3.074;2022-09-12T06:55:53;3.65;;;1.40;;
48813;SDS011;34634;44.108;3.074;2022-09-12T06:58:20;3.25;;;1.70;;
48813;SDS011;34634;44.108;3.074;2022-09-12T07:00:46;11.50;;;1.77;;
48813;SDS011;34634;44.108;3.074;2022-09-12T07:03:12;5.90;;;1.35;;
48813;SDS011;34634;44.108;3.074;2022-09-12T07:05:39;11.13;;;1.40;;
48813;SDS011;34634;44.108;3.074;2022-09-12T07:08:05;1.52;;;1.05;;
48813;SDS011;34634;44.108;3.074;2022-09-12T07:10:31;6.40;;;1.35;;
48813;SDS011;34634;44.108;3.074;2022-09-12T07:12:58;3.38;;;1.35;;
48813;SDS011;34634;44.108;3.074;2022-09-12T07:15:24;2.55;;;1.17;;
48813;SDS011;34634;44.108;3.074;2022-09-12T07:17:51;3.92;;;1.40;;
48813;SDS011;34634;44.108;3.074;2022-09-12T07:20:18;3.55;;;1.42;;
48813;SDS011;34634;44.108;3.074;2022-09-12T07:22:44;2.67;;;1.25;;
48813;SDS011;34634;44.108;3.074;2022-09-12T07:25:11;1.85;;;1.10;;
48813;SDS011;34634;44.108;3.074;2022-09-12T07:27:37;2.22;;;1.00;;
48813;SDS011;34634;44.108;3.074;2022-09-12T07:30:04;1.70;;;1.10;;
48813;SDS011;34634;44.108;3.074;2022-09-12T07:32:32;4.60;;;1.17;;
48813;SDS011;34634;44.108;3.074;2022-09-12T07:34:58;5.53;;;1.92;;
48813;SDS011;34634;44.108;3.074;2022-09-12T07:37:24;8.07;;;1.42;;
48813;SDS011;34634;44.108;3.074;2022-09-12T07:39:53;3.03;;;1.40;;
48813;SDS011;34634;44.108;3.074;2022-09-12T07:42:20;2.42;;;1.30;;
48813;SDS011;34634;44.108;3.074;2022-09-12T07:44:46;2.33;;;1.35;;
48813;SDS011;34634;44.108;3.074;2022-09-12T07:47:12;5.55;;;1.40;;
48813;SDS011;34634;44.108;3.074;2022-09-12T07:49:39;2.47;;;1.50;;
48813;SDS011;34634;44.108;3.074;2022-09-12T07:52:05;1.50;;;1.40;;
48813;SDS011;34634;44.108;3.074;2022-09-12T07:54:32;3.05;;;1.40;;
48813;SDS011;34634;44.108;3.074;2022-09-12T07:56:58;3.97;;;1.40;;
48813;SDS011;34634;44.108;3.074;2022-09-12T07:59:24;3.88;;;1.30;;
48813;SDS011;34634;44.108;3.074;2022-09-12T08:01:52;3.08;;;1.23;;
48813;SDS011;34634;44.108;3.074;2022-09-12T08:04:18;7.13;;;1.40;;
48813;SDS011;34634;44.108;3.074;2022-09-12T08:06:45;2.40;;;1.10;;
48813;SDS011;34634;44.108;3.074;2022-09-12T08:09:11;1.90;;;1.20;;
48813;SDS011;34634;44.108;3.074;2022-09-12T08:11:39;4.00;;;2.10;;
48813;SDS011;34634;44.108;3.074;2022-09-12T08:14:06;7.82;;;1.35;;
48813;SDS011;34634;44.108;3.074;2022-09-12T08:16:32;3.03;;;1.23;;
48813;SDS011;34634;44.108;3.074;2022-09-12T08:19:00;1.83;;;1.10;;
48813;SDS011;34634;44.108;3.074;2022-09-12T08:21:28;3.78;;;0.82;;
48813;SDS011;34634;44.108;3.074;2022-09-12T08:23:59;5.22;;;1.13;;
48813;SDS011;34634;44.108;3.074;2022-09-12T08:28:52;2.88;;;1.00;;
48813;SDS011;34634;44.108;3.074;2022-09-12T08:31:19;3.30;;;1.10;;
48813;SDS011;34634;44.108;3.074;2022-09-12T08:33:46;1.67;;;0.98;;
48813;SDS011;34634;44.108;3.074;2022-09-12T08:36:14;3.70;;;0.95;;
48813;SDS011;34634;44.108;3.074;2022-09-12T08:38:41;2.60;;;1.15;;
48813;SDS011;34634;44.108;3.074;2022-09-12T08:46:11;1.88;;;0.82;;
48813;SDS011;34634;44.108;3.074;2022-09-12T08:48:42;3.33;;;1.15;;
48813;SDS011;34634;44.108;3.074;2022-09-12T08:51:11;3.15;;;1.13;;
48813;SDS011;34634;44.108;3.074;2022-09-12T08:53:39;1.27;;;0.88;;
48813;SDS011;34634;44.108;3.074;2022-09-12T08:56:07;4.82;;;1.00;;
48813;SDS011;34634;44.108;3.074;2022-09-12T08:58:39;4.47;;;1.02;;
48813;SDS011;34634;44.108;3.074;2022-09-12T09:06:14;2.35;;;1.10;;
48813;SDS011;34634;44.108;3.074;2022-09-12T09:16:53;3.97;;;1.25;;
48813;SDS011;34634;44.108;3.074;2022-09-12T09:19:29;1.52;;;0.90;;
48813;SDS011;34634;44.108;3.074;2022-09-12T09:22:03;2.63;;;1.00;;
48813;SDS011;34634;44.108;3.074;2022-09-12T09:24:41;2.40;;;0.80;;
48813;SDS011;34634;44.108;3.074;2022-09-12T09:27:14;3.42;;;0.90;;
48813;SDS011;34634;44.108;3.074;2022-09-12T09:29:49;7.07;;;1.20;;
48813;SDS011;34634;44.108;3.074;2022-09-12T09:32:21;3.22;;;1.13;;
48813;SDS011;34634;44.108;3.074;2022-09-12T09:34:48;1.08;;;0.80;;
48813;SDS011;34634;44.108;3.074;2022-09-12T09:37:18;1.80;;;1.05;;
48813;SDS011;34634;44.108;3.074;2022-09-12T09:42:41;2.42;;;1.02;;
48813;SDS011;34634;44.108;3.074;2022-09-12T09:45:19;3.30;;;1.00;;
48813;SDS011;34634;44.108;3.074;2022-09-12T09:48:00;4.43;;;1.08;;
48813;SDS011;34634;44.108;3.074;2022-09-12T09:50:28;3.88;;;1.00;;
48813;SDS011;34634;44.108;3.074;2022-09-12T09:52:55;1.50;;;0.93;;
48813;SDS011;34634;44.108;3.074;2022-09-12T09:55:24;2.42;;;0.80;;
48813;SDS011;34634;44.108;3.074;2022-09-12T09:57:52;3.83;;;1.27;;
48813;SDS011;34634;44.108;3.074;2022-09-12T10:05:27;3.35;;;1.10;;
48813;SDS011;34634;44.108;3.074;2022-09-12T10:07:54;2.15;;;1.15;;
48813;SDS011;34634;44.108;3.074;2022-09-12T10:10:20;2.15;;;1.25;;
48813;SDS011;34634;44.108;3.074;2022-09-12T10:12:50;2.85;;;1.00;;
48813;SDS011;34634;44.108;3.074;2022-09-12T10:15:18;5.97;;;1.13;;
48813;SDS011;34634;44.108;3.074;2022-09-12T10:17:46;2.20;;;1.05;;
48813;SDS011;34634;44.108;3.074;2022-09-12T10:22:58;2.10;;;1.20;;
48813;SDS011;34634;44.108;3.074;2022-09-12T10:25:25;4.80;;;1.42;;
48813;SDS011;34634;44.108;3.074;2022-09-12T10:27:54;2.80;;;1.20;;
48813;SDS011;34634;44.108;3.074;2022-09-12T10:30:21;2.25;;;1.20;;
48813;SDS011;34634;44.108;3.074;2022-09-12T10:32:53;2.10;;;1.50;;
48813;SDS011;34634;44.108;3.074;2022-09-12T10:35:22;4.50;;;1.20;;
48813;SDS011;34634;44.108;3.074;2022-09-12T10:37:50;5.20;;;1.48;;
48813;SDS011;34634;44.108;3.074;2022-09-12T10:43:29;2.22;;;1.38;;
48813;SDS011;34634;44.108;3.074;2022-09-12T10:45:56;2.15;;;1.42;;
48813;SDS011;34634;44.108;3.074;2022-09-12T10:48:25;5.07;;;1.63;;
48813;SDS011;34634;44.108;3.074;2022-09-12T10:53:26;3.55;;;1.30;;
48813;SDS011;34634;44.108;3.074;2022-09-12T11:00:49;2.53;;;1.40;;
48813;SDS011;34634;44.108;3.074;2022-09-12T11:03:22;2.97;;;1.27;;
48813;SDS011;34634;44.108;3.074;2022-09-12T11:05:56;2.45;;;1.17;;
48813;SDS011;34634;44.108;3.074;2022-09-12T11:13:24;3.80;;;1.40;;
48813;SDS011;34634;44.108;3.074;2022-09-12T11:19:36;4.00;;;1.38;;
48813;SDS011;34634;44.108;3.074;2022-09-12T11:39:52;1.67;;;1.58;;
48813;SDS011;34634;44.108;3.074;2022-09-12T11:42:23;2.50;;;1.30;;
48813;SDS011;34634;44.108;3.074;2022-09-12T11:44:57;4.15;;;1.40;;
48813;SDS011;34634;44.108;3.074;2022-09-12T11:47:26;4.38;;;1.30;;
48813;SDS011;34634;44.108;3.074;2022-09-12T11:49:53;5.68;;;1.30;;
48813;SDS011;34634;44.108;3.074;2022-09-12T11:52:24;4.07;;;1.60;;
48813;SDS011;34634;44.108;3.074;2022-09-12T11:54:59;2.87;;;1.50;;
48813;SDS011;34634;44.108;3.074;2022-09-12T12:00:17;4.88;;;1.20;;
48813;SDS011;34634;44.108;3.074;2022-09-12T12:07:52;2.53;;;1.30;;
48813;SDS011;34634;44.108;3.074;2022-09-12T12:10:31;2.97;;;1.38;;
48813;SDS011;34634;44.108;3.074;2022-09-12T12:12:58;4.63;;;1.08;;
48813;SDS011;34634;44.108;3.074;2022-09-12T12:15:26;1.92;;;1.38;;
48813;SDS011;34634;44.108;3.074;2022-09-12T12:20:32;3.25;;;1.40;;
48813;SDS011;34634;44.108;3.074;2022-09-12T12:22:58;4.20;;;1.45;;
48813;SDS011;34634;44.108;3.074;2022-09-12T12:26:08;2.83;;;1.40;;
48813;SDS011;34634;44.108;3.074;2022-09-12T12:28:59;3.67;;;1.40;;
48813;SDS011;34634;44.108;3.074;2022-09-12T12:31:02;2.25;;;1.50;;
48813;SDS011;34634;44.108;3.074;2022-09-12T12:38:27;5.43;;;1.42;;
48813;SDS011;34634;44.108;3.074;2022-09-12T12:41:02;4.63;;;1.38;;
48813;SDS011;34634;44.108;3.074;2022-09-12T12:43:40;3.63;;;1.40;;
48813;SDS011;34634;44.108;3.074;2022-09-12T12:46:07;1.90;;;1.50;;
48813;SDS011;34634;44.108;3.074;2022-09-12T12:48:35;1.63;;;1.38;;
48813;SDS011;34634;44.108;3.074;2022-09-12T12:53:54;2.33;;;1.58;;
48813;SDS011;34634;44.108;3.074;2022-09-12T12:56:34;3.28;;;1.52;;
48813;SDS011;34634;44.108;3.074;2022-09-12T12:59:10;1.85;;;1.40;;
48813;SDS011;34634;44.108;3.074;2022-09-12T13:01:42;2.15;;;1.80;;
48813;SDS011;34634;44.108;3.074;2022-09-12T13:04:14;1.55;;;1.30;;
48813;SDS011;34634;44.108;3.074;2022-09-12T13:06:42;5.38;;;1.50;;
48813;SDS011;34634;44.108;3.074;2022-09-12T13:11:54;1.60;;;1.40;;
48813;SDS011;34634;44.108;3.074;2022-09-12T13:14:32;2.78;;;1.40;;
48813;SDS011;34634;44.108;3.074;2022-09-12T13:17:00;1.75;;;1.38;;
48813;SDS011;34634;44.108;3.074;2022-09-12T13:19:28;3.10;;;1.60;;
48813;SDS011;34634;44.108;3.074;2022-09-12T13:24:22;2.40;;;1.40;;
48813;SDS011;34634;44.108;3.074;2022-09-12T13:26:48;2.58;;;1.60;;
48813;SDS011;34634;44.108;3.074;2022-09-12T13:29:19;4.03;;;1.50;;
48813;SDS011;34634;44.108;3.074;2022-09-12T13:31:47;3.40;;;1.40;;
48813;SDS011;34634;44.108;3.074;2022-09-12T13:34:17;4.40;;;1.45;;
48813;SDS011;34634;44.108;3.074;2022-09-12T13:39:46;2.63;;;1.38;;
48813;SDS011;34634;44.108;3.074;2022-09-12T13:42:26;3.75;;;1.70;;
48813;SDS011;34634;44.108;3.074;2022-09-12T13:47:37;1.60;;;1.30;;
48813;SDS011;34634;44.108;3.074;2022-09-12T13:50:05;3.42;;;1.60;;
48813;SDS011;34634;44.108;3.074;2022-09-12T13:52:33;1.63;;;1.42;;
48813;SDS011;34634;44.108;3.074;2022-09-12T13:55:04;7.70;;;1.70;;
48813;SDS011;34634;44.108;3.074;2022-09-12T13:57:32;4.57;;;1.75;;
48813;SDS011;34634;44.108;3.074;2022-09-12T14:00:06;2.72;;;1.70;;
48813;SDS011;34634;44.108;3.074;2022-09-12T14:02:34;3.55;;;1.42;;
48813;SDS011;34634;44.108;3.074;2022-09-12T14:05:00;2.65;;;1.55;;
48813;SDS011;34634;44.108;3.074;2022-09-12T14:07:51;2.75;;;1.60;;
48813;SDS011;34634;44.108;3.074;2022-09-12T14:10:22;4.50;;;1.38;;
48813;SDS011;34634;44.108;3.074;2022-09-12T14:12:51;6.07;;;1.60;;
48813;SDS011;34634;44.108;3.074;2022-09-12T14:15:21;3.95;;;1.60;;
48813;SDS011;34634;44.108;3.074;2022-09-12T14:17:50;2.50;;;1.50;;
48813;SDS011;34634;44.108;3.074;2022-09-12T14:20:19;4.77;;;1.80;;
48813;SDS011;34634;44.108;3.074;2022-09-12T14:22:50;3.53;;;1.70;;
48813;SDS011;34634;44.108;3.074;2022-09-12T14:25:18;5.53;;;2.15;;
48813;SDS011;34634;44.108;3.074;2022-09-12T14:27:51;3.75;;;1.70;;
48813;SDS011;34634;44.108;3.074;2022-09-12T14:30:26;3.50;;;1.50;;
48813;SDS011;34634;44.108;3.074;2022-09-12T14:33:11;4.22;;;1.65;;
48813;SDS011;34634;44.108;3.074;2022-09-12T14:35:41;2.97;;;1.50;;
48813;SDS011;34634;44.108;3.074;2022-09-12T14:40:47;2.90;;;1.70;;
48813;SDS011;34634;44.108;3.074;2022-09-12T14:43:19;4.15;;;1.73;;
48813;SDS011;34634;44.108;3.074;2022-09-12T14:48:41;2.85;;;1.50;;
48813;SDS011;34634;44.108;3.074;2022-09-12T14:51:15;5.68;;;1.50;;
48813;SDS011;34634;44.108;3.074;2022-09-12T14:53:46;5.68;;;1.42;;
48813;SDS011;34634;44.108;3.074;2022-09-12T14:56:13;3.60;;;1.85;;
48813;SDS011;34634;44.108;3.074;2022-09-12T14:58:40;4.20;;;1.77;;
48813;SDS011;34634;44.108;3.074;2022-09-12T15:09:07;3.63;;;1.38;;
48813;SDS011;34634;44.108;3.074;2022-09-12T15:11:35;4.10;;;1.25;;
48813;SDS011;34634;44.108;3.074;2022-09-12T15:14:05;5.60;;;1.55;;
48813;SDS011;34634;44.108;3.074;2022-09-12T15:16:32;6.47;;;1.30;;
48813;SDS011;34634;44.108;3.074;2022-09-12T15:18:58;4.15;;;1.40;;
48813;SDS011;34634;44.108;3.074;2022-09-12T15:21:25;3.30;;;1.70;;
48813;SDS011;34634;44.108;3.074;2022-09-12T15:23:51;4.10;;;1.40;;
48813;SDS011;34634;44.108;3.074;2022-09-12T15:26:19;5.43;;;1.50;;
48813;SDS011;34634;44.108;3.074;2022-09-12T15:28:46;3.97;;;1.48;;
48813;SDS011;34634;44.108;3.074;2022-09-12T15:33:45;4.68;;;1.33;;
48813;SDS011;34634;44.108;3.074;2022-09-12T15:36:13;2.70;;;1.48;;
48813;SDS011;34634;44.108;3.074;2022-09-12T15:38:40;3.67;;;1.63;;
48813;SDS011;34634;44.108;3.074;2022-09-12T15:41:10;5.05;;;1.50;;
48813;SDS011;34634;44.108;3.074;2022-09-12T15:43:38;4.65;;;1.30;;
48813;SDS011;34634;44.108;3.074;2022-09-12T15:46:04;4.70;;;1.50;;
48813;SDS011;34634;44.108;3.074;2022-09-12T15:48:31;3.65;;;1.50;;
48813;SDS011;34634;44.108;3.074;2022-09-12T15:50:58;4.13;;;1.70;;
48813;SDS011;34634;44.108;3.074;2022-09-12T15:53:29;7.45;;;1.98;;
48813;SDS011;34634;44.108;3.074;2022-09-12T15:55:56;4.10;;;1.60;;
48813;SDS011;34634;44.108;3.074;2022-09-12T15:58:22;3.88;;;1.58;;
48813;SDS011;34634;44.108;3.074;2022-09-12T16:00:48;3.03;;;1.40;;
48813;SDS011;34634;44.108;3.074;2022-09-12T16:03:22;7.90;;;1.80;;
48813;SDS011;34634;44.108;3.074;2022-09-12T16:05:49;3.40;;;1.35;;
48813;SDS011;34634;44.108;3.074;2022-09-12T16:08:15;4.68;;;1.52;;
48813;SDS011;34634;44.108;3.074;2022-09-12T16:10:42;5.63;;;1.85;;
48813;SDS011;34634;44.108;3.074;2022-09-12T16:13:09;3.97;;;1.80;;
48813;SDS011;34634;44.108;3.074;2022-09-12T16:15:35;3.17;;;1.45;;
48813;SDS011;34634;44.108;3.074;2022-09-12T16:18:02;4.22;;;1.70;;
48813;SDS011;34634;44.108;3.074;2022-09-12T16:20:28;4.90;;;1.50;;
48813;SDS011;34634;44.108;3.074;2022-09-12T16:22:54;6.40;;;1.60;;
48813;SDS011;34634;44.108;3.074;2022-09-12T16:25:21;2.40;;;1.42;;
48813;SDS011;34634;44.108;3.074;2022-09-12T16:27:47;3.92;;;1.75;;
48813;SDS011;34634;44.108;3.074;2022-09-12T16:30:14;4.25;;;1.83;;
48813;SDS011;34634;44.108;3.074;2022-09-12T16:32:40;4.25;;;1.60;;
48813;SDS011;34634;44.108;3.074;2022-09-12T16:35:07;2.85;;;1.70;;
48813;SDS011;34634;44.108;3.074;2022-09-12T16:37:34;3.70;;;1.63;;
48813;SDS011;34634;44.108;3.074;2022-09-12T16:40:01;3.60;;;1.90;;
48813;SDS011;34634;44.108;3.074;2022-09-12T16:42:27;4.60;;;1.95;;
48813;SDS011;34634;44.108;3.074;2022-09-12T16:44:53;3.35;;;1.80;;
48813;SDS011;34634;44.108;3.074;2022-09-12T16:47:20;6.88;;;2.30;;
48813;SDS011;34634;44.108;3.074;2022-09-12T16:49:46;6.95;;;2.00;;
48813;SDS011;34634;44.108;3.074;2022-09-12T16:52:12;6.50;;;2.22;;
48813;SDS011;34634;44.108;3.074;2022-09-12T16:54:41;5.93;;;1.73;;
48813;SDS011;34634;44.108;3.074;2022-09-12T16:57:08;4.78;;;2.20;;
48813;SDS011;34634;44.108;3.074;2022-09-12T16:59:35;7.03;;;2.10;;
48813;SDS011;34634;44.108;3.074;2022-09-12T17:02:01;7.65;;;2.40;;
48813;SDS011;34634;44.108;3.074;2022-09-12T17:04:27;4.28;;;1.92;;
48813;SDS011;34634;44.108;3.074;2022-09-12T17:06:54;6.00;;;2.38;;
48813;SDS011;34634;44.108;3.074;2022-09-12T17:09:21;3.70;;;2.03;;
48813;SDS011;34634;44.108;3.074;2022-09-12T17:11:48;4.32;;;2.13;;
48813;SDS011;34634;44.108;3.074;2022-09-12T17:14:14;3.67;;;2.00;;
48813;SDS011;34634;44.108;3.074;2022-09-12T17:16:42;4.75;;;2.08;;
48813;SDS011;34634;44.108;3.074;2022-09-12T17:19:26;8.32;;;2.40;;
48813;SDS011;34634;44.108;3.074;2022-09-12T17:21:54;6.97;;;2.65;;
48813;SDS011;34634;44.108;3.074;2022-09-12T17:24:21;5.43;;;2.35;;
48813;SDS011;34634;44.108;3.074;2022-09-12T17:26:47;5.72;;;2.08;;
48813;SDS011;34634;44.108;3.074;2022-09-12T17:29:14;4.35;;;2.38;;
48813;SDS011;34634;44.108;3.074;2022-09-12T17:31:41;6.57;;;2.55;;
48813;SDS011;34634;44.108;3.074;2022-09-12T17:34:08;4.50;;;2.42;;
48813;SDS011;34634;44.108;3.074;2022-09-12T17:36:34;4.28;;;2.50;;